• Join FlightAware (Why Join?)
  • Login
  • US Flag 
03:05AM EDT


 

Airport Tracker/Info


-or-


 

Live Flight TrackerFlight Track Log ✈ SWA3247 ✈ 03-Jul-2013 ✈ KLAS - KALB

Flight Track Log - Related Links

Times and Time Zones

All times are in EDT time to prevent confusion due to time zone crossing. See the SWA3247 flight status page for this flight to view local times or setup timezone preferences in your user account.

Time Position Orientation Groundspeed Altitude Reporting Facility
EDT Latitude Longitude Course Direction KTS MPH feet Rate Location/Type
08:38PM 36.0767 -115.1014 92° East 184 212 3,200  Level Los Angeles Center
08:38PM 36.0758 -115.0672 92° East 197 227 3,700 1,140 Climbing Los Angeles Center
08:39PM 36.0767 -115.0133 89° East 229 264 4,500 2,040 Climbing Los Angeles Center
08:40PM 36.0792 -114.9150 88° East 272 313 7,100 2,520 Climbing Los Angeles Center
08:41PM 36.0975 -114.8156 77° East 295 339 9,800 1,980 Climbing Los Angeles Center
08:42PM 36.1167 -114.7092 77° East 315 362 11,200 1,740 Climbing Los Angeles Center
08:43PM 36.1375 -114.5853 78° East 363 418 13,500 2,460 Climbing Los Angeles Center
08:44PM 36.1608 -114.4350 79° East 370 426 16,800 2,700 Climbing Los Angeles Center
08:45PM 36.1867 -114.2814 78° East 379 436 19,800 2,400 Climbing Los Angeles Center
08:46PM 36.2047 -114.1453 81° East 398 458 21,800 1,620 Climbing Los Angeles Center
08:47PM 36.2222 -114.0039 81° East 412 474 23,500 1,560 Climbing Los Angeles Center
08:48PM 36.2425 -113.8261 82° East 432 497 25,400 1,800 Climbing Los Angeles Center
08:49PM 36.2639 -113.6414 82° East 450 518 27,300 1,620 Climbing Los Angeles Center
08:50PM 36.2825 -113.4858 82° East 456 525 28,800 1,680 Climbing Los Angeles Center
08:51PM 36.3000 -113.3272 82° East 463 533 30,800 1,680 Climbing Los Angeles Center
08:53PM 36.3253 -113.1875 77° East 454 522 32,700 1,680 Climbing Los Angeles Center
08:54PM 36.3956 -112.9986 65° Northeast 434 499 34,700 1,500 Climbing Los Angeles Center
08:55PM 36.4472 -112.8625 65° Northeast 436 502 35,900 1,080 Climbing Los Angeles Center
08:56PM 36.4969 -112.7256 66° East 436 502 37,000 480 Climbing Los Angeles Center
08:57PM 36.5469 -112.5892 65° Northeast 436 502 37,000  Level Los Angeles Center
08:58PM 36.5958 -112.4553 66° East 431 496 37,000  Level Los Angeles Center
08:59PM 36.6553 -112.2917 66° East 434 499 37,000  Level Los Angeles Center
09:00PM 36.7044 -112.1556 66° East 433 498 37,000  Level Los Angeles Center
09:01PM 36.7533 -112.0203 66° East 431 496 37,000  Level Los Angeles Center
09:02PM 36.8036 -111.8831 65° Northeast 435 501 37,000  Level Los Angeles Center
09:03PM 36.8500 -111.7503 66° East 426 490 37,000  Level Los Angeles Center
09:04PM 36.8889 -111.6431 66° East 424 488 37,000  Level Los Angeles Center
09:05PM 36.9489 -111.4797 65° Northeast 427 491 37,000  Level Denver Center
09:06PM 36.9964 -111.3469 66° East 423 487 37,000  Level Denver Center
09:07PM 37.0472 -111.1917 68° East 411 473 37,000  Level Denver Center
09:08PM 37.0933 -111.0608 66° East 412 474 37,000  Level Denver Center
09:09PM 37.1389 -110.9294 66° East 412 474 37,000  Level Denver Center
09:10PM 37.1833 -110.7997 67° East 408 470 37,000  Level Denver Center
09:11PM 37.2286 -110.6686 67° East 410 472 37,000  Level Denver Center
09:12PM 37.2747 -110.5342 67° East 420 483 37,000  Level Denver Center
09:13PM 37.3289 -110.3750 67° East 416 479 37,000  Level Denver Center
09:14PM 37.3731 -110.2447 67° East 408 470 37,000  Level Denver Center
09:15PM 37.4211 -110.1028 67° East 413 475 37,000  Level Denver Center
09:16PM 37.4633 -109.9781 67° East 407 468 37,000  Level Denver Center
09:17PM 37.5056 -109.8514 67° East 408 470 37,000  Level Denver Center
09:18PM 37.5547 -109.7039 67° East 408 470 37,000  Level Denver Center
09:19PM 37.5972 -109.5764 67° East 410 472 37,000  Level Denver Center
09:21PM 37.6456 -109.4286 68° East 408 470 37,000  Level Denver Center
09:22PM 37.6878 -109.3033 67° East 406 467 37,000  Level Denver Center
09:23PM 37.7353 -109.1558 68° East 405 466 37,000  Level Denver Center
09:24PM 37.7756 -109.0303 68° East 403 464 37,000  Level Denver Center
09:25PM 37.8231 -108.8814 68° East 407 468 37,000  Level Denver Center
09:26PM 37.8642 -108.7544 68° East 406 467 37,000  Level Denver Center
09:27PM 37.9047 -108.6250 68° East 410 472 37,000  Level Denver Center
09:28PM 37.9514 -108.4789 68° East 405 466 37,000  Level Denver Center
09:29PM 37.9922 -108.3506 68° East 407 468 37,000  Level Denver Center
09:30PM 38.0383 -108.1989 69° East 412 474 37,000  Level Denver Center
09:31PM 38.0842 -108.0553 68° East 408 470 37,000  Level Denver Center
09:32PM 38.1236 -107.9283 68° East 405 466 37,000  Level Denver Center
09:33PM 38.1628 -107.7997 69° East 409 471 37,000  Level Denver Center
09:34PM 38.2086 -107.6517 68° East 405 466 37,000  Level Denver Center
09:35PM 38.2483 -107.5233 68° East 407 468 37,000  Level Denver Center
09:36PM 38.2928 -107.3744 69° East 406 467 37,000  Level Denver Center
09:37PM 38.3311 -107.2481 69° East 402 463 37,000  Level Denver Center
09:38PM 38.3750 -107.1028 69° East 394 453 37,000  Level Denver Center
09:39PM 38.4150 -106.9714 69° East 397 457 37,000  Level Denver Center
09:40PM 38.4525 -106.8431 70° East 388 447 37,000  Level Denver Center
09:41PM 38.4922 -106.7122 69° East 394 453 37,000  Level Denver Center
09:42PM 38.5311 -106.5792 69° East 401 461 37,000  Level Denver Center
09:43PM 38.5697 -106.4472 69° East 399 459 37,000  Level Denver Center
09:44PM 38.6164 -106.2878 69° East 401 461 37,000  Level Denver Center
09:45PM 38.6500 -106.1708 70° East 402 463 37,000  Level Denver Center
09:46PM 38.6975 -106.0094 69° East 406 467 37,000  Level Denver Center
09:47PM 38.7347 -105.8767 70° East 399 459 37,000  Level Denver Center
09:48PM 38.7739 -105.7422 69° East 403 464 37,000  Level Denver Center
09:49PM 38.8136 -105.6058 69° East 408 470 37,000  Level Denver Center
09:50PM 38.8514 -105.4681 71° East 412 474 37,000  Level Denver Center
09:51PM 38.8997 -105.2964 70° East 425 489 37,000  Level Denver Center
09:53PM 38.9394 -105.1553 70° East 426 490 37,000  Level Denver Center
09:54PM 38.9864 -105.0214 66° East 415 478 37,000  Level Denver Center
09:55PM 39.0314 -104.8906 66° East 407 468 37,000  Level Denver Center
09:56PM 39.0775 -104.7611 65° Northeast 403 464 37,000  Level Denver Center
09:57PM 39.1214 -104.6306 67° East 399 459 37,000  Level Denver Center
09:58PM 39.1647 -104.4633 71° East 413 475 37,000  Level Denver Center
09:59PM 39.2011 -104.3239 71° East 414 476 37,000  Level Denver Center
10:00PM 39.2389 -104.1847 71° East 415 478 37,000  Level Denver Center
10:01PM 39.2758 -104.0464 71° East 412 474 37,000  Level Denver Center
10:02PM 39.3114 -103.9072 72° East 411 473 37,000  Level Denver Center
10:03PM 39.3553 -103.7397 71° East 412 474 37,000  Level Denver Center
10:04PM 39.3922 -103.6019 71° East 409 471 37,000  Level Denver Center
10:05PM 39.4272 -103.4608 72° East 413 475 37,000  Level Denver Center
10:06PM 39.4642 -103.3217 71° East 411 473 37,000  Level Denver Center
10:07PM 39.4981 -103.1792 73° East 416 479 37,000  Level Denver Center
10:08PM 39.5364 -103.0078 74° East 414 476 37,000  Level Denver Center
10:09PM 39.5678 -102.8656 74° East 412 474 37,000  Level Denver Center
10:10PM 39.5983 -102.7231 74° East 411 473 37,000  Level Denver Center
10:11PM 39.6319 -102.5772 73° East 410 472 37,000  Level Denver Center
10:12PM 39.6608 -102.4386 75° East 415 478 37,000  Level Denver Center
10:13PM 39.6961 -102.2789 74° East 415 478 37,000  Level Denver Center
10:14PM 39.7264 -102.1403 74° East 417 480 37,000  Level Denver Center
10:15PM 39.7603 -101.9769 75° East 419 482 37,000  Level Denver Center
10:16PM 39.7903 -101.8400 74° East 415 478 37,000  Level Denver Center
10:17PM 39.8236 -101.6769 75° East 417 480 37,000  Level Denver Center
10:18PM 39.8528 -101.5403 74° East 412 474 37,000  Level Denver Center
10:19PM 39.8761 -101.4258 75° East 411 473 37,000  Level Denver Center
10:20PM 39.9142 -101.2428 75° East 411 473 37,000  Level Denver Center
10:21PM 39.9461 -101.0836 75° East 409 471 37,000  Level Denver Center
10:22PM 39.9742 -100.9511 75° East 401 461 37,000  Level Denver Center
10:24PM 40.0056 -100.7939 75° East 403 464 37,000  Level Denver Center
10:25PM 40.0325 -100.6578 75° East 406 467 37,000  Level Denver Center
10:26PM 40.0594 -100.5225 75° East 404 465 37,000  Level Denver Center
10:27PM 40.0903 -100.3644 76° East 404 465 37,000  Level Denver Center
10:28PM 40.1172 -100.2292 75° East 405 466 37,000  Level Denver Center
10:29PM 40.1486 -100.0708 75° East 405 466 37,000  Level Denver Center
10:30PM 40.1744 -99.9336 76° East 407 468 37,000  Level Denver Center
10:31PM 40.2064 -99.7722 75° East 407 468 37,000  Level Denver Center
10:32PM 40.2331 -99.6286 76° East 408 470 37,000  Level Denver Center
10:33PM 40.2600 -99.4839 76° East 408 470 37,000  Level Denver Center
10:34PM 40.2875 -99.3383 76° East 413 475 37,000  Level Denver Center
10:35PM 40.3147 -99.1903 76° East 420 483 37,000  Level Denver Center
10:36PM 40.3419 -99.0436 76° East 420 483 37,000  Level Minneapolis Center
10:37PM 40.3692 -98.8939 77° East 424 488 37,000  Level Minneapolis Center
10:38PM 40.3967 -98.7453 76° East 422 486 37,000  Level Minneapolis Center
10:39PM 40.4231 -98.5958 77° East 422 486 37,000  Level Minneapolis Center
10:40PM 40.4500 -98.4489 76° East 419 482 37,000  Level Minneapolis Center
10:41PM 40.4758 -98.2983 77° East 422 486 37,000  Level Minneapolis Center
10:42PM 40.5022 -98.1503 77° East 421 484 37,000  Level Minneapolis Center
10:43PM 40.5339 -97.9697 77° East 423 487 37,000  Level Minneapolis Center
10:44PM 40.5594 -97.8203 77° East 422 486 37,000  Level Minneapolis Center
10:45PM 40.5800 -97.6992 77° East 425 489 37,000  Level Minneapolis Center
10:46PM 40.6117 -97.5156 77° East 428 493 37,000  Level Minneapolis Center
10:47PM 40.6400 -97.3494 77° East 429 494 37,000  Level Minneapolis Center
10:48PM 40.6650 -97.1950 78° East 430 495 37,000  Level Minneapolis Center
10:49PM 40.6906 -97.0414 78° East 431 496 37,000  Level Minneapolis Center
10:50PM 40.7150 -96.8889 78° East 429 494 37,000  Level Minneapolis Center
10:51PM 40.7408 -96.7367 77° East 428 493 37,000  Level Minneapolis Center
10:52PM 40.7647 -96.5839 78° East 428 493 37,000  Level Minneapolis Center
10:53PM 40.7892 -96.4317 78° East 427 491 37,000  Level Minneapolis Center
10:54PM 40.8139 -96.2800 78° East 426 490 37,000  Level Minneapolis Center
10:55PM 40.8375 -96.1286 78° East 424 488 37,000  Level Minneapolis Center
10:56PM 40.8653 -95.9461 79° East 426 490 37,000  Level Minneapolis Center
10:57PM 40.8886 -95.7931 79° East 427 491 37,000  Level Minneapolis Center
10:58PM 40.9131 -95.6378 78° East 432 497 37,000  Level Minneapolis Center
10:59PM 40.9358 -95.4797 79° East 438 504 37,000  Level Minneapolis Center
11:00PM 40.9603 -95.3231 78° East 439 505 37,000  Level Minneapolis Center
11:01PM 40.9844 -95.1656 78° East 438 504 37,000  Level Minneapolis Center
11:02PM 41.0069 -95.0097 79° East 435 501 37,000  Level Minneapolis Center
11:03PM 41.0286 -94.8528 80° East 435 501 37,000  Level Minneapolis Center
11:04PM 41.0558 -94.6661 79° East 432 497 37,000  Level Minneapolis Center
11:05PM 41.0753 -94.5308 79° East 431 496 37,000  Level Minneapolis Center
11:06PM 41.0956 -94.3769 80° East 429 494 37,000  Level Minneapolis Center
11:07PM 41.1175 -94.2231 79° East 428 493 37,000  Level Minneapolis Center
11:08PM 41.1439 -94.0386 79° East 428 493 37,000  Level Minneapolis Center
11:09PM 41.1631 -93.8828 81° East 429 494 37,000  Level Minneapolis Center
11:10PM 41.1850 -93.7261 79° East 432 497 37,000  Level Minneapolis Center
11:11PM 41.2069 -93.5689 79° East 435 501 37,000  Level Minneapolis Center
11:13PM 41.2278 -93.4097 80° East 439 505 37,000  Level Minneapolis Center
11:14PM 41.2531 -93.2206 80° East 437 503 37,000  Level Minneapolis Center
11:15PM 41.2739 -93.0606 80° East 440 506 37,000  Level Minneapolis Center
11:16PM 41.2947 -92.8986 80° East 445 512 37,000  Level Minneapolis Center
11:17PM 41.3153 -92.7350 80° East 447 514 37,000  Level Chicago Center
11:18PM 41.3344 -92.5708 81° East 450 518 37,000  Level Chicago Center
11:19PM 41.3542 -92.4081 81° East 448 516 37,000  Level Chicago Center
11:20PM 41.3750 -92.2422 80° East 450 518 37,000  Level Chicago Center
11:21PM 41.4053 -92.0828 76° East 450 518 37,000  Level Chicago Center
11:22PM 41.4375 -91.9219 75° East 454 522 37,000  Level Chicago Center
11:23PM 41.4672 -91.7258 79° East 455 524 37,000  Level Chicago Center
11:24PM 41.4914 -91.5639 79° East 453 521 37,000  Level Chicago Center
11:25PM 41.5158 -91.4000 79° East 455 524 37,000  Level Chicago Center
11:26PM 41.5400 -91.2350 79° East 459 528 37,000  Level Chicago Center
11:27PM 41.5647 -91.0708 79° East 459 528 37,000  Level Chicago Center
11:28PM 41.5892 -90.9050 79° East 462 532 37,000  Level Chicago Center
11:29PM 41.6133 -90.7378 79° East 464 534 37,000  Level Chicago Center
11:30PM 41.6386 -90.5536 80° East 463 533 37,000  Level Chicago Center
11:31PM 41.6625 -90.3825 79° East 466 536 37,000  Level Chicago Center
11:32PM 41.6869 -90.2122 79° East 465 535 37,000  Level Chicago Center
11:33PM 41.7100 -90.0411 80° East 465 535 37,000 120 Level Chicago Center
11:34PM 41.7350 -89.8667 79° East 473 544 37,300 780 Climbing Chicago Center
11:35PM 41.7578 -89.6917 80° East 476 548 38,700 780 Climbing Chicago Center
11:36PM 41.7844 -89.4931 80° East 474 545 39,000 120 Climbing Chicago Center
11:37PM 41.8064 -89.3189 80° East 473 544 39,000  Level Chicago Center
11:38PM 41.8283 -89.1467 80° East 473 544 39,000  Level Chicago Center
11:39PM 41.8503 -88.9747 80° East 470 541 39,000  Level Chicago Center
11:40PM 41.8717 -88.8000 81° East 474 545 39,000  Level Chicago Center
11:41PM 41.8933 -88.6256 80° East 475 547 39,000  Level Chicago Center
11:42PM 41.9153 -88.4522 80° East 473 544 39,000  Level Chicago Center
11:43PM 41.9364 -88.2761 81° East 475 547 39,000 -300 Level Chicago Center
11:44PM 41.9589 -88.0975 80° East 481 554 38,500 -840 Descending Chicago Center
11:45PM 41.9836 -87.8836 81° East 483 556 37,400 -780 Descending Chicago Center
11:46PM 42.0033 -87.7050 81° East 483 556 37,000 -240 Descending Chicago Center
11:47PM 42.0242 -87.5283 81° East 480 552 37,000  Level Chicago Center
11:48PM 42.0442 -87.3531 81° East 477 549 37,000  Level Chicago Center
11:49PM 42.0636 -87.1767 81° East 478 550 37,000  Level Chicago Center
11:50PM 42.0833 -87.0025 81° East 475 547 37,000  Level Chicago Center
11:51PM 42.1022 -86.8267 82° East 476 548 37,000  Level Chicago Center
11:52PM 42.1200 -86.6508 82° East 478 550 37,000  Level Chicago Center
11:53PM 42.1386 -86.4742 82° East 478 550 37,000  Level Chicago Center
11:54PM 42.1578 -86.2969 82° East 478 550 37,000  Level Chicago Center
11:55PM 42.1758 -86.1189 82° East 478 550 37,000  Level Chicago Center
11:56PM 42.1953 -85.9211 82° East 476 548 37,000  Level Chicago Center
11:57PM 42.2119 -85.7436 83° East 480 552 37,000  Level Chicago Center
11:58PM 42.2292 -85.5669 82° East 480 552 37,000  Level Chicago Center
11:59PM 42.2461 -85.3872 83° East 485 558 37,000  Level Chicago Center
12:01AM 42.2708 -85.1342 82° East 491 565 37,000  Level Chicago Center
12:02AM 42.2881 -84.9550 83° East 487 560 37,000  Level Chicago Center
12:03AM 42.3028 -84.7781 84° East 478 550 37,000  Level Chicago Center
12:04AM 42.3186 -84.6039 83° East 473 544 37,000  Level Chicago Center
12:05AM 42.3344 -84.4289 83° East 473 544 37,000  Level Chicago Center
12:06AM 42.3478 -84.2414 84° East 474 545 37,000  Level Cleveland Center
12:07AM 42.3617 -84.0650 84° East 474 545 37,000  Level Cleveland Center
12:08AM 42.3772 -83.8889 83° East 474 545 37,000  Level Cleveland Center
12:09AM 42.3925 -83.7153 83° East 474 545 37,000  Level Cleveland Center
12:10AM 42.4036 -83.5331 85° East 474 545 37,000  Level Cleveland Center
12:11AM 42.4189 -83.3394 84° East 480 552 37,000  Level Cleveland Center
12:12AM 42.4336 -83.1544 84° East 481 554 37,000  Level Cleveland Center
12:13AM 42.4456 -82.9778 85° East 481 554 37,000  Level Cleveland Center
12:14AM 42.4597 -82.7953 84° East 481 554 37,000  Level Cleveland Center
12:15AM 42.4736 -82.6100 84° East 481 554 37,000  Level Cleveland Center
12:16AM 42.4850 -82.4303 85° East 481 554 37,000  Level Cleveland Center
12:17AM 42.4961 -82.2503 85° East 481 554 37,000  Level Cleveland Center
12:18AM 42.5089 -82.0675 85° East 481 554 37,000  Level Cleveland Center
12:19AM 42.5194 -81.8875 85° East 481 554 37,000  Level Cleveland Center
12:20AM 42.5336 -81.7244 83° East 481 554 37,000  Level Cleveland Center
12:21AM 42.5436 -81.5442 86° East 481 554 37,000  Level Cleveland Center
12:22AM 42.5533 -81.3611 86° East 481 554 37,000  Level Cleveland Center
12:23AM 42.5672 -81.1639 84° East 476 548 37,000  Level Cleveland Center
12:24AM 42.5761 -80.9836 86° East 481 554 37,000  Level Cleveland Center
12:25AM 42.5872 -80.8031 85° East 481 554 37,000  Level Cleveland Center
12:26AM 42.5956 -80.6256 86° East 476 548 37,000  Level Cleveland Center
12:27AM 42.6061 -80.4422 85° East 476 548 37,000  Level Cleveland Center
12:28AM 42.6139 -80.2617 87° East 476 548 37,000  Level Cleveland Center
12:29AM 42.6239 -80.0808 86° East 481 554 37,000  Level Cleveland Center
12:30AM 42.6314 -79.9200 86° East 481 554 37,000  Level Cleveland Center
12:31AM 42.6406 -79.7392 86° East 476 548 37,000  Level Cleveland Center
12:32AM 42.6475 -79.5614 87° East 476 548 37,000  Level Cleveland Center
12:33AM 42.6561 -79.3806 86° East 476 548 37,000  Level Cleveland Center
12:34AM 42.6644 -79.2025 86° East 476 548 37,000  Level Cleveland Center
12:35AM 42.6686 -79.0189 88° East 476 548 37,000  Level Cleveland Center
12:36AM 42.6764 -78.8381 87° East 476 548 37,000  Level Cleveland Center
12:37AM 42.6817 -78.6542 88° East 476 548 37,000  Level Cleveland Center
12:38AM 42.6889 -78.4675 87° East 481 554 37,000  Level Cleveland Center
12:39AM 42.6939 -78.2867 88° East 481 554 37,000  Level Cleveland Center
12:40AM 42.7003 -78.0997 87° East 481 554 37,000  Level Cleveland Center
12:41AM 42.7067 -77.9217 87° East 481 554 37,000  Level Cleveland Center
12:42AM 42.7125 -77.7264 88° East 476 548 37,000  Level Cleveland Center
12:43AM 42.7144 -77.5539 89° East 482 555 37,000  Level Cleveland Center
12:44AM 42.7192 -77.3500 88° East 492 566 37,000 -1,380 Level Cleveland Center
12:46AM 42.7247 -77.0281 89° East 478 550 33,200 -2,460 Descending Boston Center
12:47AM 42.7297 -76.8444 88° East 478 550 30,200 -2,100 Descending Boston Center
12:48AM 42.7328 -76.6608 89° East 478 550 29,000 -600 Descending Boston Center
12:49AM 42.7372 -76.4803 88° East 478 550 29,000  Level Boston Center
12:50AM 42.7392 -76.3022 89° East 478 550 29,000 -60 Level Boston Center
12:51AM 42.7403 -76.1411 89° East 478 550 28,900 -120 Descending Boston Center
12:52AM 42.7481 -75.9661 86° East 468 539 28,800 -1,500 Descending Boston Center
12:53AM 42.7589 -75.7461 86° East 474 545 25,600 -3,000 Descending Boston Center
12:54AM 42.7664 -75.5483 87° East 476 548 22,800 -2,520 Descending Boston Center
12:55AM 42.7728 -75.3875 87° East 451 519 20,600 -2,100 Descending Boston Center
12:56AM 42.7789 -75.2267 87° East 430 495 18,600 -2,040 Descending Boston Center
12:57AM 42.7847 -75.0769 87° East 414 476 16,600 -2,100 Descending Boston Center
12:57AM 42.7864 -74.9978 88° East 408 470 15,500 -2,160 Descending Boston Center
12:58AM 42.7936 -74.8650 86° East 384 442 13,600 -2,040 Descending Boston Center
12:59AM 42.7972 -74.7831 87° East 381 438 12,500 -1,680 Descending Boston Center
01:00AM 42.7956 -74.6642 91° East 370 426 11,000 -900 Descending Boston Center
01:01AM 42.7939 -74.5253 91° East 339 390 10,700 -840 Descending Boston Center
01:02AM 42.8000 -74.4208 85° East 314 361 9,400 -1,440 Descending Boston Center
01:03AM 42.8061 -74.2967 86° East 304 350 7,900 -1,380 Descending Boston Center
01:04AM 42.8100 -74.1947 87° East 298 343 6,700 -1,200 Descending Boston Center
01:05AM 42.8136 -74.0986 87° East 288 331 5,600 -1,440 Descending Boston Center
01:05AM 42.8167 -74.0253 87° East 280 322 4,600 -1,320 Descending Boston Center
01:06AM 42.8214 -73.9886 80° East 282 325 4,300 -720 Descending Boston Center
01:06AM 42.8222 -73.9261 89° East 260 299 3,900 -600 Descending Boston Center
01:07AM 42.8244 -73.8981 84° East 261 300 3,700 -1,140 Descending Boston Center
01:07AM 42.8294 -73.8500 82° East 187 215 2,800 -1,680 Descending Boston Center
01:08AM 42.8111 -73.8069 120° Southeast 155 178 1,200 -1,140 Descending Boston Center
01:09AM 42.7736 -73.8092 182° South 122 140 600 -600 Descending Boston Center